createdAt,value
2024-02-27T00:01:35.231Z,99618.19
2024-02-27T00:04:06.192Z,99620.48
2024-02-27T00:06:50.856Z,99626.17
2024-02-27T00:09:21.541Z,99628.08
2024-02-27T00:11:59.734Z,99625.83
2024-02-27T00:14:40.726Z,99632.48
2024-02-27T00:17:11.336Z,99638.66
2024-02-27T00:19:41.848Z,99640.39
2024-02-27T00:22:15.616Z,99635.31
2024-02-27T00:24:46.140Z,99634.42
2024-02-27T00:27:16.727Z,99631.99
2024-02-27T00:29:47.084Z,99639.38
2024-02-27T00:32:17.571Z,99641.50
2024-02-27T00:34:48.442Z,99635.05
2024-02-27T00:37:18.954Z,99632.56
2024-02-27T00:39:49.506Z,99636.05
2024-02-27T00:42:20.126Z,99640.42
2024-02-27T00:44:50.586Z,99644.70
2024-02-27T00:47:21.010Z,99641.71
2024-02-27T00:49:51.647Z,99645.23
2024-02-27T00:52:25.263Z,99655.09
2024-02-27T00:54:55.678Z,99659.24
2024-02-27T00:57:26.109Z,99658.71
2024-02-27T00:59:56.481Z,99655.40
2024-02-27T01:02:27.052Z,99654.38
2024-02-27T01:05:00.619Z,99657.05
2024-02-27T01:07:31.303Z,99665.31
2024-02-27T01:10:13.070Z,99668.86
2024-02-27T01:12:43.744Z,99662.94
2024-02-27T01:15:24.546Z,99665.45
2024-02-27T01:17:55.781Z,99669.70
2024-02-27T01:20:24.907Z,99678.66
2024-02-27T01:22:55.333Z,99684.71
2024-02-27T01:25:25.931Z,99693.48
2024-02-27T01:27:56.528Z,99698.84
2024-02-27T01:30:26.978Z,99703.80
2024-02-27T01:32:57.546Z,99709.30
2024-02-27T01:35:28.158Z,99712.87
2024-02-27T01:37:58.549Z,99719.93
2024-02-27T01:40:28.974Z,99720.89
2024-02-27T01:42:59.465Z,99730.21
2024-02-27T01:45:51.412Z,99730.20
2024-02-27T01:48:22.010Z,99730.27
2024-02-27T01:50:52.543Z,99733.86
2024-02-27T01:53:24.261Z,99733.87
2024-02-27T01:55:54.973Z,99727.79
2024-02-27T01:58:25.824Z,99717.25
2024-02-27T02:00:59.682Z,99711.62
2024-02-27T02:03:34.031Z,99709.77
2024-02-27T02:06:05.556Z,99705.89
2024-02-27T02:08:39.229Z,99709.92
2024-02-27T02:11:11.715Z,99708.48
2024-02-27T02:13:42.430Z,99705.83
2024-02-27T02:16:16.243Z,99706.98
2024-02-27T02:18:50.971Z,99707.61
2024-02-27T02:21:21.552Z,99709.02
2024-02-27T02:23:52.670Z,99710.31
2024-02-27T02:26:26.152Z,99713.67
2024-02-27T02:28:56.776Z,99711.10
2024-02-27T02:31:29.152Z,99701.80
2024-02-27T02:33:59.768Z,99698.23
2024-02-27T02:36:30.498Z,99702.77
2024-02-27T02:39:01.034Z,99708.02
2024-02-27T02:41:31.596Z,99712.27
2024-02-27T02:44:02.067Z,99717.45
2024-02-27T02:46:32.509Z,99719.42
2024-02-27T02:49:05.984Z,99730.39
2024-02-27T02:51:36.704Z,99738.21
2024-02-27T02:54:07.933Z,99745.73
2024-02-27T02:56:38.539Z,99749.42
2024-02-27T02:59:09.193Z,99750.52
2024-02-27T03:01:39.974Z,99749.67
2024-02-27T03:04:10.669Z,99755.83
2024-02-27T03:06:41.297Z,99746.52
2024-02-27T03:09:23.049Z,99747.73
2024-02-27T03:11:53.499Z,99754.02
2024-02-27T03:14:27.072Z,99755.89
2024-02-27T03:16:58.470Z,99756.54
2024-02-27T03:19:29.097Z,99753.27
2024-02-27T03:22:02.111Z,99757.91
2024-02-27T03:24:35.686Z,99766.66
2024-02-27T03:27:06.648Z,99772.32
2024-02-27T03:29:37.365Z,99776.86
2024-02-27T03:32:28.000Z,99779.35
2024-02-27T03:34:58.771Z,99779.66
2024-02-27T03:37:29.577Z,99786.13
2024-02-27T03:40:00.005Z,99791.16
2024-02-27T03:42:30.882Z,99791.92
2024-02-27T03:45:01.608Z,99795.36
2024-02-27T03:47:32.056Z,99796.03
2024-02-27T03:50:02.682Z,99802.86
2024-02-27T03:52:33.161Z,99806.90
2024-02-27T03:55:03.677Z,99814.24
2024-02-27T03:57:34.333Z,99814.77
2024-02-27T04:00:05.549Z,99820.89
2024-02-27T04:02:35.860Z,99825.63
2024-02-27T04:05:16.013Z,99832.52
2024-02-27T04:07:49.324Z,99834.64
2024-02-27T04:10:20.632Z,99836.89
2024-02-27T04:12:51.199Z,99838.22
2024-02-27T04:15:22.964Z,99845.87
2024-02-27T04:17:53.457Z,99848.11
2024-02-27T04:20:24.429Z,99856.10
2024-02-27T04:22:54.886Z,99864.63
2024-02-27T04:25:25.591Z,99870.81
2024-02-27T04:28:07.601Z,99872.86
2024-02-27T04:30:48.492Z,99877.00
2024-02-27T04:33:19.253Z,99876.68
2024-02-27T04:36:04.304Z,99884.83
2024-02-27T04:38:34.867Z,99889.48
2024-02-27T04:41:05.784Z,99889.92
2024-02-27T04:43:38.889Z,99889.30
2024-02-27T04:46:12.505Z,99883.93
2024-02-27T04:48:45.842Z,99885.77
2024-02-27T04:51:19.194Z,99887.61
2024-02-27T04:53:49.646Z,99890.67
2024-02-27T04:56:23.602Z,99892.71
2024-02-27T04:58:54.182Z,99897.35
2024-02-27T05:01:24.696Z,99901.48
2024-02-27T05:03:58.445Z,99909.98
2024-02-27T05:06:29.257Z,99916.34
2024-02-27T05:08:59.995Z,99920.93
2024-02-27T05:11:30.780Z,99928.75
2024-02-27T05:14:01.387Z,99937.96
2024-02-27T05:16:32.021Z,99942.32
2024-02-27T05:19:02.536Z,99945.52
2024-02-27T05:21:33.253Z,99945.77
2024-02-27T05:24:03.984Z,99954.02
2024-02-27T05:26:35.184Z,99956.82
2024-02-27T05:29:05.944Z,99955.60
2024-02-27T05:31:39.491Z,99959.27
2024-02-27T05:34:09.975Z,99961.56
2024-02-27T05:36:40.553Z,99964.36
2024-02-27T05:39:11.318Z,99962.09
2024-02-27T05:41:44.741Z,99961.95
2024-02-27T05:44:26.452Z,99974.02
2024-02-27T05:46:56.888Z,99981.42
2024-02-27T05:49:27.504Z,99983.21
2024-02-27T05:52:09.226Z,99979.58
2024-02-27T05:54:39.812Z,99981.02
2024-02-27T05:57:10.714Z,99983.73
2024-02-27T05:59:41.283Z,99980.52
2024-02-27T06:02:12.020Z,99974.80
2024-02-27T06:04:42.502Z,99961.61
2024-02-27T06:07:13.143Z,99960.98
2024-02-27T06:09:43.694Z,99963.18
2024-02-27T06:12:14.381Z,99970.08
2024-02-27T06:14:50.583Z,99973.32
2024-02-27T06:17:21.088Z,99979.80
2024-02-27T06:19:56.915Z,99983.84
2024-02-27T06:22:38.442Z,99985.98
2024-02-27T06:25:11.769Z,99990.57
2024-02-27T06:28:06.100Z,99996.15
2024-02-27T06:30:36.643Z,99995.61
2024-02-27T06:33:09.606Z,99997.65
2024-02-27T06:35:43.366Z,100000.04
2024-02-27T06:38:34.144Z,100000.85
2024-02-27T06:41:04.617Z,99999.42
2024-02-27T06:43:38.438Z,99999.04
2024-02-27T06:46:07.977Z,100003.05
2024-02-27T06:48:41.171Z,100017.58
2024-02-27T06:51:11.791Z,100027.41
2024-02-27T06:53:44.450Z,100032.46
2024-02-27T06:56:15.217Z,100037.73
2024-02-27T06:58:45.874Z,100043.31
2024-02-27T07:01:16.505Z,100044.90
2024-02-27T07:03:50.227Z,100052.37
2024-02-27T07:06:26.532Z,100052.86
2024-02-27T07:09:17.528Z,100052.65
2024-02-27T07:11:50.649Z,100047.38
2024-02-27T07:14:21.307Z,100038.77
2024-02-27T07:16:51.767Z,100039.41
2024-02-27T07:19:22.892Z,100043.04
2024-02-27T07:21:53.867Z,100042.48
2024-02-27T07:24:24.601Z,100046.42
2024-02-27T07:26:55.184Z,100043.70
2024-02-27T07:29:25.795Z,100039.60
2024-02-27T07:31:57.093Z,100043.17
2024-02-27T07:34:27.662Z,100046.34
2024-02-27T07:36:58.195Z,100043.54
2024-02-27T07:39:28.743Z,100050.20
2024-02-27T07:41:59.331Z,100049.48
2024-02-27T07:44:29.935Z,100051.96
2024-02-27T07:47:00.439Z,100049.52
2024-02-27T07:49:47.837Z,100053.07
2024-02-27T07:52:18.511Z,100046.62
2024-02-27T07:54:49.131Z,100048.91
2024-02-27T07:57:19.744Z,100048.75
2024-02-27T07:59:53.147Z,100053.33
2024-02-27T08:02:27.134Z,100058.62
2024-02-27T08:05:00.002Z,100058.33
2024-02-27T08:07:31.955Z,100061.14
2024-02-27T08:10:03.219Z,100062.29
2024-02-27T08:12:34.482Z,100065.73
2024-02-27T08:15:06.261Z,100069.67
2024-02-27T08:17:36.965Z,100072.78
2024-02-27T08:20:27.791Z,100079.20
2024-02-27T08:22:58.423Z,100079.93
2024-02-27T08:25:40.154Z,100082.38
2024-02-27T08:28:23.539Z,100090.75
2024-02-27T08:30:54.256Z,100097.88
2024-02-27T08:33:24.898Z,100097.08
2024-02-27T08:35:55.740Z,100098.14
2024-02-27T08:38:28.960Z,100098.09
2024-02-27T08:40:59.459Z,100090.16
2024-02-27T08:43:44.283Z,100090.02
2024-02-27T08:46:19.614Z,100089.14
2024-02-27T08:48:51.482Z,100091.45
2024-02-27T08:51:22.410Z,100093.98
2024-02-27T08:53:55.707Z,100099.96
2024-02-27T08:56:26.114Z,100100.63
2024-02-27T08:59:00.049Z,100108.41
2024-02-27T09:01:29.151Z,100111.94
2024-02-27T09:04:14.543Z,100114.55
2024-02-27T09:06:45.528Z,100111.08
2024-02-27T09:09:16.553Z,100112.70
2024-02-27T09:11:49.008Z,100113.05
2024-02-27T09:14:19.750Z,100112.46
2024-02-27T09:16:50.109Z,100113.56
2024-02-27T09:19:21.454Z,100118.66
2024-02-27T09:21:52.346Z,100120.13
2024-02-27T09:24:23.115Z,100121.92
2024-02-27T09:26:53.698Z,100123.48
2024-02-27T09:29:24.466Z,100130.02
2024-02-27T09:31:55.045Z,100130.00
2024-02-27T09:34:25.846Z,100134.55
2024-02-27T09:36:56.405Z,100136.01
2024-02-27T09:39:31.146Z,100138.42
2024-02-27T09:42:10.921Z,100137.35
2024-02-27T09:44:43.697Z,100136.41
2024-02-27T09:47:18.899Z,100134.41
2024-02-27T09:49:53.195Z,100131.08
2024-02-27T09:52:25.601Z,100123.09
2024-02-27T09:54:58.039Z,100118.30
2024-02-27T09:57:28.882Z,100110.35
2024-02-27T09:59:59.491Z,100116.41
2024-02-27T10:02:30.182Z,100118.01
2024-02-27T10:05:03.769Z,100120.89
2024-02-27T10:07:35.775Z,100116.41
2024-02-27T10:10:07.334Z,100119.82
2024-02-27T10:12:37.811Z,100115.86
2024-02-27T10:15:09.859Z,100115.93
2024-02-27T10:17:42.309Z,100117.52
2024-02-27T10:20:14.581Z,100121.36
2024-02-27T10:22:45.174Z,100122.08
2024-02-27T10:25:17.081Z,100121.13
2024-02-27T10:27:48.034Z,100127.69
2024-02-27T10:30:21.679Z,100130.45
2024-02-27T10:32:53.213Z,100135.66
2024-02-27T10:35:26.095Z,100135.59
2024-02-27T10:37:57.612Z,100138.93
2024-02-27T10:40:40.231Z,100139.46
2024-02-27T10:43:11.044Z,100141.70
2024-02-27T10:45:42.319Z,100141.44
2024-02-27T10:48:11.520Z,100136.88
2024-02-27T10:50:43.086Z,100136.31
2024-02-27T10:53:13.926Z,100137.27
2024-02-27T10:55:46.548Z,100141.85
2024-02-27T10:58:18.857Z,100141.25
2024-02-27T11:00:49.414Z,100137.43
2024-02-27T11:03:21.649Z,100134.30
2024-02-27T11:05:52.954Z,100133.98
2024-02-27T11:08:25.259Z,100131.57
2024-02-27T11:10:56.189Z,100129.23
2024-02-27T11:13:27.294Z,100131.69
2024-02-27T11:15:58.586Z,100130.70
2024-02-27T11:18:29.798Z,100131.42
2024-02-27T11:21:02.540Z,100128.98
2024-02-27T11:23:33.350Z,100125.95
2024-02-27T11:26:04.785Z,100122.41
2024-02-27T11:28:36.242Z,100121.23
2024-02-27T11:31:06.200Z,100116.84
2024-02-27T11:33:47.779Z,100119.21
2024-02-27T11:36:19.339Z,100119.33
2024-02-27T11:38:49.969Z,100120.72
2024-02-27T11:41:22.933Z,100119.71
2024-02-27T11:43:56.111Z,100128.21
2024-02-27T11:46:40.453Z,100132.84
2024-02-27T11:49:12.547Z,100130.35
2024-02-27T11:51:43.131Z,100125.55
2024-02-27T11:54:15.075Z,100127.52
2024-02-27T11:56:49.108Z,100131.48
2024-02-27T11:59:20.599Z,100128.56
2024-02-27T12:02:02.158Z,100129.21
2024-02-27T12:04:32.889Z,100132.34
2024-02-27T12:07:03.399Z,100135.30
2024-02-27T12:09:33.927Z,100138.13
2024-02-27T12:12:04.773Z,100135.28
2024-02-27T12:14:36.105Z,100133.73
2024-02-27T12:17:05.123Z,100131.98
2024-02-27T12:19:35.938Z,100124.33
2024-02-27T12:22:07.327Z,100123.26
2024-02-27T12:24:37.693Z,100119.46
2024-02-27T12:27:08.428Z,100117.81
2024-02-27T12:29:39.320Z,100116.94
2024-02-27T12:32:10.237Z,100115.59
2024-02-27T12:34:42.006Z,100113.81
2024-02-27T12:37:12.508Z,100108.14
2024-02-27T12:39:43.574Z,100109.17
2024-02-27T12:42:17.600Z,100110.65
2024-02-27T12:44:51.664Z,100118.06
2024-02-27T12:47:22.880Z,100115.30
2024-02-27T12:49:53.979Z,100107.02
2024-02-27T12:52:24.500Z,100104.47
2024-02-27T12:54:55.318Z,100099.27
2024-02-27T12:57:26.145Z,100097.27
2024-02-27T12:59:56.715Z,100097.28
2024-02-27T13:02:29.602Z,100094.83
2024-02-27T13:05:00.767Z,100093.52
2024-02-27T13:07:29.861Z,100094.95
2024-02-27T13:10:01.256Z,100098.58
2024-02-27T13:12:32.040Z,100094.40
2024-02-27T13:15:02.466Z,100089.42
2024-02-27T13:17:32.883Z,100088.60
2024-02-27T13:20:05.037Z,100083.27
2024-02-27T13:22:35.450Z,100078.10
2024-02-27T13:25:06.472Z,100077.53
2024-02-27T13:27:36.984Z,100076.08
2024-02-27T13:30:09.654Z,100080.02
2024-02-27T13:32:40.246Z,100076.33
2024-02-27T13:35:11.272Z,100084.38
2024-02-27T13:37:41.796Z,100086.25
2024-02-27T13:40:13.720Z,100089.12
2024-02-27T13:42:45.405Z,100092.09
2024-02-27T13:45:16.136Z,100087.12
2024-02-27T13:47:46.736Z,100090.09
2024-02-27T13:50:17.216Z,100089.78
2024-02-27T13:52:48.921Z,100089.84
2024-02-27T13:55:19.843Z,100087.11
2024-02-27T13:57:50.466Z,100088.63
2024-02-27T14:00:22.254Z,100089.42
2024-02-27T14:02:52.713Z,100086.15
2024-02-27T14:05:23.294Z,100081.27
2024-02-27T14:07:54.335Z,100079.83
2024-02-27T14:10:24.842Z,100076.89
2024-02-27T14:12:55.642Z,100076.49
2024-02-27T14:15:26.251Z,100075.27
2024-02-27T14:17:56.712Z,100073.34
2024-02-27T14:20:27.269Z,100078.41
2024-02-27T14:22:57.619Z,100080.02
2024-02-27T14:25:28.235Z,100082.54
2024-02-27T14:27:59.103Z,100077.06
2024-02-27T14:30:29.876Z,100074.84
2024-02-27T14:33:01.701Z,100075.39
2024-02-27T14:35:34.491Z,100076.00
2024-02-27T14:38:05.148Z,100075.45
2024-02-27T14:40:35.639Z,100070.73
2024-02-27T14:43:06.399Z,100076.31
2024-02-27T14:45:36.966Z,100075.94
2024-02-27T14:48:09.264Z,100073.65
2024-02-27T14:50:39.821Z,100074.25
2024-02-27T14:53:11.057Z,100072.24
2024-02-27T14:55:43.434Z,100070.38
2024-02-27T14:58:16.940Z,100072.65
2024-02-27T15:00:47.635Z,100068.46
2024-02-27T15:03:18.246Z,100074.17
2024-02-27T15:05:48.834Z,100077.50
2024-02-27T15:08:19.425Z,100076.34
2024-02-27T15:10:49.934Z,100075.69
2024-02-27T15:13:20.409Z,100079.38
2024-02-27T15:15:50.919Z,100082.34
2024-02-27T15:18:21.860Z,100079.57
2024-02-27T15:20:55.605Z,100077.97
2024-02-27T15:23:26.075Z,100081.53
2024-02-27T15:25:57.603Z,100086.91
2024-02-27T15:28:27.990Z,100086.42
2024-02-27T15:30:58.470Z,100087.70
2024-02-27T15:33:29.026Z,100090.07
2024-02-27T15:35:59.635Z,100092.71
2024-02-27T15:38:30.098Z,100097.06
2024-02-27T15:41:00.610Z,100107.16
2024-02-27T15:43:32.664Z,100109.31
2024-02-27T15:46:03.543Z,100111.80
2024-02-27T15:48:34.111Z,100114.09
2024-02-27T15:51:08.953Z,100118.27
2024-02-27T15:53:41.548Z,100119.17
2024-02-27T15:56:12.292Z,100123.16
2024-02-27T15:58:42.857Z,100123.86
2024-02-27T16:01:13.437Z,100127.77
2024-02-27T16:03:59.909Z,100130.80
2024-02-27T16:06:36.895Z,100132.52
2024-02-27T16:09:07.574Z,100135.40
2024-02-27T16:11:38.625Z,100137.73
2024-02-27T16:14:09.483Z,100141.05
2024-02-27T16:16:40.395Z,100144.36
2024-02-27T16:19:11.927Z,100146.16
2024-02-27T16:21:46.326Z,100153.33
2024-02-27T16:24:17.093Z,100159.23
2024-02-27T16:26:47.555Z,100164.44
2024-02-27T16:29:18.072Z,100167.50
2024-02-27T16:31:48.605Z,100169.27
2024-02-27T16:34:19.275Z,100173.20
2024-02-27T16:36:49.781Z,100175.98
2024-02-27T16:39:20.372Z,100175.89
2024-02-27T16:41:51.272Z,100186.73
2024-02-27T16:44:24.270Z,100192.42
2024-02-27T16:46:54.977Z,100194.33
2024-02-27T16:49:36.628Z,100194.08
2024-02-27T16:52:07.900Z,100197.45
2024-02-27T16:54:38.545Z,100204.36
2024-02-27T16:57:09.317Z,100209.96
2024-02-27T16:59:40.003Z,100214.45
2024-02-27T17:02:10.773Z,100221.20
2024-02-27T17:04:41.526Z,100221.77
2024-02-27T17:07:12.329Z,100227.66
2024-02-27T17:09:42.904Z,100223.27
2024-02-27T17:12:16.039Z,100236.48
2024-02-27T17:14:46.765Z,100238.59
2024-02-27T17:17:17.125Z,100236.33
2024-02-27T17:19:47.750Z,100241.08
2024-02-27T17:22:18.334Z,100245.50
2024-02-27T17:24:48.800Z,100250.20
2024-02-27T17:27:19.329Z,100253.21
2024-02-27T17:29:51.532Z,100258.86
2024-02-27T17:32:22.047Z,100262.33
2024-02-27T17:34:52.688Z,100265.45
2024-02-27T17:37:23.402Z,100267.83
2024-02-27T17:39:53.990Z,100271.94
2024-02-27T17:42:24.462Z,100272.77
2024-02-27T17:44:55.582Z,100275.02
2024-02-27T17:47:29.251Z,100280.60
2024-02-27T17:50:00.488Z,100279.83
2024-02-27T17:52:34.366Z,100286.45
2024-02-27T17:55:12.303Z,100292.34
2024-02-27T17:57:43.138Z,100293.64
2024-02-27T18:00:24.954Z,100296.89
2024-02-27T18:03:03.231Z,100295.00
2024-02-27T18:05:33.948Z,100301.17
2024-02-27T18:08:04.660Z,100300.48
2024-02-27T18:10:35.205Z,100304.66
2024-02-27T18:13:06.320Z,100307.69
2024-02-27T18:15:36.851Z,100306.83
2024-02-27T18:18:08.472Z,100308.95
2024-02-27T18:20:39.400Z,100311.46
2024-02-27T18:23:10.740Z,100312.34
2024-02-27T18:25:42.003Z,100311.16
2024-02-27T18:28:12.597Z,100310.86
2024-02-27T18:30:43.456Z,100312.94
2024-02-27T18:33:16.235Z,100313.88
2024-02-27T18:35:52.638Z,100315.83
2024-02-27T18:38:25.245Z,100318.17
2024-02-27T18:40:57.374Z,100320.00
2024-02-27T18:43:28.075Z,100322.20
2024-02-27T18:45:59.019Z,100328.27
2024-02-27T18:48:34.590Z,100329.54
2024-02-27T18:51:09.406Z,100331.20
2024-02-27T18:53:41.263Z,100327.57
2024-02-27T18:56:12.110Z,100329.00
2024-02-27T18:58:42.626Z,100326.41
2024-02-27T19:01:24.999Z,100326.42
2024-02-27T19:03:56.039Z,100328.30
2024-02-27T19:06:27.296Z,100327.30
2024-02-27T19:09:08.724Z,100328.91
2024-02-27T19:11:42.627Z,100334.89
2024-02-27T19:14:13.499Z,100341.92
2024-02-27T19:16:44.302Z,100347.35
2024-02-27T19:19:15.127Z,100347.05
2024-02-27T19:21:49.501Z,100350.96
2024-02-27T19:24:20.966Z,100356.08
2024-02-27T19:26:54.321Z,100363.03
2024-02-27T19:29:27.292Z,100366.39
2024-02-27T19:31:57.845Z,100373.13
2024-02-27T19:34:28.433Z,100373.94
2024-02-27T19:37:02.175Z,100375.29
2024-02-27T19:39:33.005Z,100382.75
2024-02-27T19:42:03.603Z,100384.60
2024-02-27T19:44:34.038Z,100385.42
2024-02-27T19:47:07.869Z,100389.58
2024-02-27T19:49:42.971Z,100390.86
2024-02-27T19:52:13.363Z,100388.48
2024-02-27T19:54:43.945Z,100390.08
2024-02-27T19:57:14.626Z,100394.70
2024-02-27T19:59:50.721Z,100396.96
2024-02-27T20:02:21.481Z,100403.31
2024-02-27T20:05:14.151Z,100404.77
2024-02-27T20:07:44.832Z,100404.39
2024-02-27T20:10:17.969Z,100403.50
2024-02-27T20:12:51.809Z,100398.80
2024-02-27T20:15:22.585Z,100399.84
2024-02-27T20:17:57.178Z,100402.45
2024-02-27T20:20:27.744Z,100404.98
2024-02-27T20:22:58.129Z,100412.17
2024-02-27T20:25:28.580Z,100416.02
2024-02-27T20:27:59.404Z,100418.02
2024-02-27T20:30:33.074Z,100420.09
2024-02-27T20:33:03.971Z,100425.52
2024-02-27T20:35:38.668Z,100427.08
2024-02-27T20:38:11.851Z,100426.89
2024-02-27T20:40:42.369Z,100430.36
2024-02-27T20:43:14.756Z,100432.77
2024-02-27T20:45:45.432Z,100438.19
2024-02-27T20:48:16.181Z,100448.89
2024-02-27T20:50:46.716Z,100452.90
2024-02-27T20:53:17.307Z,100457.06
2024-02-27T20:55:48.004Z,100459.84
2024-02-27T20:58:18.678Z,100460.81
2024-02-27T21:00:49.377Z,100464.29
2024-02-27T21:03:19.938Z,100464.41
2024-02-27T21:05:53.145Z,100461.95
2024-02-27T21:08:23.774Z,100464.73
2024-02-27T21:10:54.459Z,100464.38
2024-02-27T21:13:25.085Z,100465.91
2024-02-27T21:15:56.077Z,100467.05
2024-02-27T21:18:30.086Z,100467.90
2024-02-27T21:21:00.630Z,100470.61
2024-02-27T21:23:35.945Z,100470.54
2024-02-27T21:26:10.662Z,100469.64
2024-02-27T21:28:41.165Z,100468.70
2024-02-27T21:31:11.739Z,100467.67
2024-02-27T21:33:53.496Z,100466.41
2024-02-27T21:36:24.198Z,100473.69
2024-02-27T21:38:57.014Z,100476.48
2024-02-27T21:41:39.438Z,100480.13
2024-02-27T21:44:09.959Z,100487.02
2024-02-27T21:46:41.241Z,100491.48
2024-02-27T21:49:14.407Z,100499.79
2024-02-27T21:51:49.492Z,100499.68
2024-02-27T21:54:27.911Z,100501.49
2024-02-27T21:56:58.337Z,100501.30
2024-02-27T21:59:28.917Z,100503.15
2024-02-27T22:02:01.911Z,100503.33
2024-02-27T22:04:32.465Z,100504.23
2024-02-27T22:07:03.046Z,100511.23
2024-02-27T22:09:33.983Z,100514.06
2024-02-27T22:12:04.779Z,100512.16
2024-02-27T22:14:35.510Z,100513.20
2024-02-27T22:17:06.420Z,100516.16
2024-02-27T22:19:36.937Z,100519.70
2024-02-27T22:22:07.864Z,100523.05
2024-02-27T22:24:43.877Z,100528.27
2024-02-27T22:27:15.197Z,100534.06
2024-02-27T22:29:46.186Z,100541.52
2024-02-27T22:32:16.717Z,100547.09
2024-02-27T22:34:47.907Z,100545.69
2024-02-27T22:37:21.160Z,100549.55
2024-02-27T22:40:02.004Z,100549.09
2024-02-27T22:42:35.603Z,100553.84
2024-02-27T22:45:11.943Z,100554.90
2024-02-27T22:47:42.864Z,100562.54
2024-02-27T22:50:14.034Z,100560.42
2024-02-27T22:52:47.617Z,100565.27
2024-02-27T22:55:39.001Z,100566.30
2024-02-27T22:58:20.633Z,100568.87
2024-02-27T23:00:52.147Z,100572.67
2024-02-27T23:03:23.047Z,100573.27
2024-02-27T23:05:56.813Z,100573.02
2024-02-27T23:08:29.777Z,100577.33
2024-02-27T23:11:03.333Z,100581.30
2024-02-27T23:13:36.593Z,100585.76
2024-02-27T23:16:09.702Z,100581.38
2024-02-27T23:18:40.663Z,100582.05
2024-02-27T23:21:11.459Z,100583.41
2024-02-27T23:23:42.399Z,100588.80
2024-02-27T23:26:23.166Z,100593.81
2024-02-27T23:28:54.821Z,100590.48
2024-02-27T23:31:25.349Z,100598.95
2024-02-27T23:34:16.084Z,100606.07
2024-02-27T23:37:07.351Z,100607.96
2024-02-27T23:39:48.174Z,100613.47
2024-02-27T23:42:18.935Z,100613.05
2024-02-27T23:45:10.690Z,100613.87
2024-02-27T23:47:59.835Z,100613.10
2024-02-27T23:50:33.089Z,100611.10
2024-02-27T23:53:12.852Z,100608.58
2024-02-27T23:55:43.332Z,100614.02
2024-02-27T23:58:33.992Z,100619.13
